Time;durP1;ratioP1;P1;durP2;ratioP2;P2;SDS_P1;SDS_P2;PMS_P1;PMS_P2;Temp;Humidity;BMP_temperature;BMP_pressure;BME280_temperature;BME280_humidity;BME280_pressure;Samples;Min_cycle;Max_cycle;Signal;HPM_P1;HPM_P2
2022/11/09 00:01:33;;;;;;;4.50;2.50;;;13.10;4.40;;;;;;5054224;28;20375;-74
2022/11/09 00:04:00;;;;;;;2.43;2.23;;;13.10;7.10;;;;;;5052383;28;20441;-73
2022/11/09 00:06:27;;;;;;;3.77;2.47;;;13.10;6.30;;;;;;5053315;28;20843;-74
2022/11/09 00:08:53;;;;;;;3.43;2.80;;;13.10;10.80;;;;;;5051836;28;20931;-74
2022/11/09 00:11:20;;;;;;;4.50;2.37;;;13.00;10.20;;;;;;5053573;28;20422;-76
2022/11/09 00:13:46;;;;;;;2.53;2.33;;;13.10;9.60;;;;;;5053217;28;20915;-77
2022/11/09 00:16:15;;;;;;;2.80;2.50;;;13.10;11.00;;;;;;5052973;28;20465;-74
2022/11/09 00:18:46;;;;;;;2.83;2.53;;;13.10;11.90;;;;;;5053872;28;20375;-75
2022/11/09 00:21:22;;;;;;;2.43;2.20;;;13.00;6.10;;;;;;5053866;28;20391;-77
2022/11/09 00:23:48;;;;;;;4.07;2.50;;;13.10;9.20;;;;;;5052125;28;20439;-78
2022/11/09 00:26:16;;;;;;;2.10;2.00;;;13.10;19.20;;;;;;5052908;28;20419;-75
2022/11/09 00:28:42;;;;;;;3.10;2.80;;;13.10;17.70;;;;;;5053131;28;20991;-76
2022/11/09 00:31:12;;;;;;;2.87;2.60;;;13.10;18.00;;;;;;5052763;28;20416;-76
2022/11/09 00:33:39;;;;;;;3.10;2.13;;;13.10;19.40;;;;;;5052761;28;21201;-77
2022/11/09 00:36:10;;;;;;;2.53;2.13;;;13.10;17.20;;;;;;5052543;28;20474;-78
2022/11/09 00:38:39;;;;;;;4.03;2.30;;;13.10;22.40;;;;;;5053519;28;20392;-75
2022/11/09 00:41:06;;;;;;;2.80;2.60;;;13.20;17.60;;;;;;5053485;28;20426;-74
2022/11/09 00:43:32;;;;;;;2.77;2.57;;;13.20;22.70;;;;;;5052244;28;20807;-77
2022/11/09 00:45:58;;;;;;;2.80;2.60;;;13.20;22.50;;;;;;5066761;28;20526;-76
2022/11/09 00:48:24;;;;;;;4.13;2.47;;;13.30;21.50;;;;;;5051376;28;20421;-74
2022/11/09 00:50:54;;;;;;;4.53;2.80;;;13.30;21.50;;;;;;5053191;28;20167;-76
2022/11/09 00:53:21;;;;;;;4.90;2.20;;;13.30;18.60;;;;;;5053023;28;20392;-76
2022/11/09 00:55:56;;;;;;;4.17;3.03;;;13.40;22.10;;;;;;5052471;28;20449;-78
2022/11/09 00:58:23;;;;;;;2.80;2.30;;;13.40;23.10;;;;;;5052511;28;20431;-75
2022/11/09 01:00:49;;;;;;;3.20;2.90;;;13.40;23.40;;;;;;5053119;28;20376;-74
2022/11/09 01:03:15;;;;;;;5.70;2.83;;;13.40;26.60;;;;;;5052085;28;20418;-74
2022/11/09 01:05:41;;;;;;;5.37;3.33;;;13.40;23.90;;;;;;5051613;28;20796;-73
2022/11/09 01:08:07;;;;;;;7.27;2.87;;;13.40;20.20;;;;;;5052216;28;20919;-76
2022/11/09 01:10:32;;;;;;;5.63;3.10;;;13.40;25.60;;;;;;5053065;28;20183;-77
2022/11/09 01:12:58;;;;;;;3.00;2.73;;;13.30;23.80;;;;;;5052840;28;20166;-75
2022/11/09 01:15:24;;;;;;;2.60;2.40;;;13.30;29.10;;;;;;5051763;28;20650;-75
2022/11/09 01:17:50;;;;;;;3.90;3.00;;;13.30;29.10;;;;;;5052099;28;20276;-75
2022/11/09 01:20:16;;;;;;;4.10;2.93;;;13.40;29.10;;;;;;5052712;28;20258;-74
2022/11/09 01:22:42;;;;;;;5.50;2.80;;;13.30;31.60;;;;;;5067640;28;20500;-77
2022/11/09 01:25:08;;;;;;;6.07;2.57;;;13.20;36.30;;;;;;5052059;28;20376;-76
2022/11/09 01:27:34;;;;;;;3.50;3.20;;;13.20;31.20;;;;;;5051165;28;20206;-74
2022/11/09 01:30:00;;;;;;;2.90;2.67;;;13.20;33.60;;;;;;5051713;28;20391;-76
2022/11/09 01:32:26;;;;;;;4.40;2.63;;;13.10;37.80;;;;;;5051355;28;20889;-74
2022/11/09 01:34:52;;;;;;;3.43;2.47;;;13.10;39.00;;;;;;5051892;28;20372;-75
2022/11/09 01:37:17;;;;;;;2.20;2.00;;;13.10;34.20;;;;;;5051685;28;20209;-76
2022/11/09 01:39:43;;;;;;;3.00;2.30;;;13.00;41.60;;;;;;5051627;28;20174;-75
2022/11/09 01:42:09;;;;;;;2.73;2.20;;;13.00;43.90;;;;;;5052658;28;20163;-75
2022/11/09 01:44:37;;;;;;;3.70;2.10;;;13.00;47.30;;;;;;5051596;28;20195;-74
2022/11/09 01:47:10;;;;;;;3.10;2.60;;;12.90;45.40;;;;;;5052596;28;20230;-75
2022/11/09 01:49:53;;;;;;;3.63;3.30;;;12.90;51.90;;;;;;5052423;28;20471;-75
2022/11/09 01:52:39;;;;;;;4.00;2.37;;;12.90;50.50;;;;;;5051697;28;20392;-76
2022/11/09 01:55:10;;;;;;;3.63;2.70;;;12.90;56.60;;;;;;5051785;28;20404;-76
2022/11/09 01:57:41;;;;;;;3.80;3.50;;;12.90;52.40;;;;;;5053816;28;20494;-74
2022/11/09 02:00:10;;;;;;;2.17;2.07;;;12.80;57.00;;;;;;5055864;28;20869;-74
2022/11/09 02:02:39;;;;;;;10.77;2.80;;;12.80;60.00;;;;;;5054459;28;20413;-74
2022/11/09 02:05:11;;;;;;;3.87;2.53;;;12.80;53.70;;;;;;5055121;28;20455;-73
2022/11/09 02:07:37;;;;;;;2.90;2.43;;;12.80;61.30;;;;;;5055349;28;20412;-76
2022/11/09 02:10:25;;;;;;;2.80;2.60;;;12.80;66.10;;;;;;5056286;28;20429;-77
2022/11/09 02:12:53;;;;;;;4.90;3.00;;;12.80;63.50;;;;;;5056289;28;20408;-75
2022/11/09 02:15:20;;;;;;;5.83;2.97;;;12.70;71.60;;;;;;5054978;28;20393;-76
2022/11/09 02:17:51;;;;;;;3.23;2.97;;;12.70;71.90;;;;;;5054267;28;20448;-77
2022/11/09 02:20:17;;;;;;;4.37;2.20;;;12.70;67.70;;;;;;5056171;28;20364;-78
2022/11/09 02:22:43;;;;;;;3.33;2.93;;;12.80;64.70;;;;;;5054825;28;20392;-75
2022/11/09 02:25:11;;;;;;;3.57;2.43;;;12.70;74.70;;;;;;5054546;28;20400;-75
2022/11/09 02:27:38;;;;;;;8.23;3.30;;;12.70;75.20;;;;;;5055131;28;20372;-76
2022/11/09 02:30:05;;;;;;;3.37;2.70;;;12.70;80.80;;;;;;5055954;28;20398;-78
2022/11/09 02:32:31;;;;;;;2.77;2.57;;;12.70;80.30;;;;;;5056071;28;20476;-75
2022/11/09 02:34:57;;;;;;;4.50;2.73;;;12.70;78.40;;;;;;5054973;28;20401;-74
2022/11/09 02:37:31;;;;;;;2.80;2.60;;;12.60;76.70;;;;;;5053815;28;20721;-76
2022/11/09 02:40:02;;;;;;;3.30;2.90;;;12.70;80.90;;;;;;5055835;28;20418;-74
2022/11/09 02:42:28;;;;;;;7.90;2.80;;;12.60;83.50;;;;;;5055831;28;20413;-75
2022/11/09 02:44:58;;;;;;;2.80;2.43;;;12.60;84.80;;;;;;5052717;28;20423;-76
2022/11/09 02:47:25;;;;;;;2.63;2.33;;;12.60;91.40;;;;;;5055299;28;20764;-79
2022/11/09 02:49:50;;;;;;;2.17;1.97;;;12.60;84.30;;;;;;5055404;28;20399;-75
2022/11/09 02:52:17;;;;;;;4.13;2.87;;;12.60;89.10;;;;;;5055452;28;20384;-74
2022/11/09 02:54:43;;;;;;;3.93;3.17;;;12.60;92.20;;;;;;5053260;28;20213;-75
2022/11/09 02:57:09;;;;;;;3.10;2.90;;;12.60;92.50;;;;;;5054674;28;20471;-75
2022/11/09 02:59:35;;;;;;;3.63;2.70;;;12.60;92.00;;;;;;5054560;28;20403;-74
2022/11/09 03:02:01;;;;;;;5.53;3.43;;;12.60;92.00;;;;;;5055332;28;20403;-75
2022/11/09 03:04:26;;;;;;;2.50;2.20;;;12.60;92.00;;;;;;5054440;28;20217;-75
2022/11/09 03:06:52;;;;;;;3.30;2.63;;;12.60;89.10;;;;;;5055090;28;20187;-73
2022/11/09 03:09:19;;;;;;;4.23;3.80;;;12.60;85.50;;;;;;5053348;28;20198;-76
2022/11/09 03:11:45;;;;;;;3.57;2.90;;;12.60;90.40;;;;;;5054801;28;20395;-74
2022/11/09 03:14:11;;;;;;;2.97;2.70;;;12.60;86.80;;;;;;5053864;28;20627;-74
2022/11/09 03:16:38;;;;;;;3.30;3.10;;;12.60;92.30;;;;;;5053552;28;20439;-75
2022/11/09 03:19:04;;;;;;;3.27;2.83;;;12.60;93.00;;;;;;5052918;28;20400;-74
2022/11/09 03:21:30;;;;;;;2.60;2.40;;;12.60;93.00;;;;;;5052148;28;20836;-72
2022/11/09 03:23:56;;;;;;;3.00;2.80;;;12.60;93.00;;;;;;5065751;28;20432;-76
2022/11/09 03:26:21;;;;;;;2.70;2.50;;;12.60;93.00;;;;;;5054880;28;20563;-74
2022/11/09 03:28:47;;;;;;;2.70;2.50;;;12.60;93.00;;;;;;5053761;28;20614;-74
2022/11/09 03:31:13;;;;;;;2.50;2.40;;;12.60;93.00;;;;;;5054497;28;20167;-76
2022/11/09 03:33:42;;;;;;;3.70;2.80;;;12.60;93.00;;;;;;5053921;28;20178;-77
2022/11/09 03:36:08;;;;;;;2.67;2.47;;;12.70;93.00;;;;;;5054604;28;20436;-76
2022/11/09 03:38:34;;;;;;;3.57;3.17;;;12.60;93.00;;;;;;5053680;28;20483;-78
2022/11/09 03:41:02;;;;;;;3.50;3.20;;;12.70;93.00;;;;;;5054058;28;20415;-75
2022/11/09 03:43:29;;;;;;;3.80;2.70;;;12.70;93.00;;;;;;5054333;28;20437;-73
2022/11/09 03:45:55;;;;;;;4.50;2.90;;;12.70;93.00;;;;;;5052880;28;20427;-76
2022/11/09 03:48:20;;;;;;;2.70;2.50;;;12.70;93.00;;;;;;5053268;28;20408;-76
2022/11/09 03:50:46;;;;;;;3.23;2.70;;;12.70;93.00;;;;;;5052429;28;20411;-76
2022/11/09 03:53:12;;;;;;;3.10;2.80;;;12.70;93.10;;;;;;5054461;28;20183;-76
2022/11/09 03:55:38;;;;;;;3.10;2.80;;;12.70;93.00;;;;;;5053499;28;20213;-73
2022/11/09 03:58:06;;;;;;;10.33;2.47;;;12.70;93.00;;;;;;5054268;28;20384;-77
2022/11/09 04:00:32;;;;;;;3.83;3.20;;;12.70;93.00;;;;;;5053400;28;20491;-76
2022/11/09 04:02:58;;;;;;;6.17;3.40;;;12.70;93.00;;;;;;5054027;28;20739;-74
2022/11/09 04:05:25;;;;;;;2.97;2.67;;;12.70;93.00;;;;;;5052632;28;20422;-76
2022/11/09 04:07:52;;;;;;;3.00;2.80;;;12.70;93.00;;;;;;5054262;28;20175;-77
2022/11/09 04:10:18;;;;;;;3.17;2.60;;;12.70;93.10;;;;;;5052407;28;20439;-75
2022/11/09 04:12:44;;;;;;;3.10;2.80;;;12.70;93.70;;;;;;5053280;28;20412;-76
2022/11/09 04:15:11;;;;;;;4.80;2.67;;;12.70;93.70;;;;;;5052255;28;20500;-76
2022/11/09 04:17:36;;;;;;;5.20;2.80;;;12.70;94.50;;;;;;5052663;28;20438;-76
2022/11/09 04:20:03;;;;;;;3.57;2.70;;;12.70;93.50;;;;;;5053110;28;20441;-74
2022/11/09 04:22:29;;;;;;;3.43;3.10;;;12.80;93.90;;;;;;5053946;28;20217;-75
2022/11/09 04:24:55;;;;;;;4.03;2.80;;;12.70;94.60;;;;;;5052510;28;20784;-78
2022/11/09 04:27:20;;;;;;;3.30;2.27;;;12.80;97.80;;;;;;5052653;28;20289;-76
2022/11/09 04:29:46;;;;;;;6.90;3.10;;;12.80;95.00;;;;;;5053071;28;20186;-79
2022/11/09 04:32:12;;;;;;;3.57;2.97;;;12.80;96.60;;;;;;5052676;28;20572;-75
2022/11/09 04:34:37;;;;;;;6.20;3.00;;;12.80;96.70;;;;;;5052864;28;20189;-75
2022/11/09 04:37:03;;;;;;;2.63;2.43;;;12.80;96.80;;;;;;5052117;28;20211;-77
2022/11/09 04:39:29;;;;;;;3.63;2.77;;;12.80;93.10;;;;;;5052680;28;20167;-74
2022/11/09 04:41:54;;;;;;;4.40;2.30;;;12.80;95.00;;;;;;5052902;28;20190;-76
2022/11/09 04:44:20;;;;;;;2.93;2.70;;;12.80;93.10;;;;;;5052521;28;20167;-75
2022/11/09 04:46:46;;;;;;;2.50;2.30;;;12.70;93.00;;;;;;5052940;28;20217;-76
2022/11/09 04:49:11;;;;;;;2.43;2.17;;;12.70;94.70;;;;;;5052338;28;20333;-76
2022/11/09 04:51:37;;;;;;;4.70;2.30;;;12.70;97.70;;;;;;5053342;28;20174;-76
2022/11/09 04:54:03;;;;;;;3.60;2.90;;;12.70;96.80;;;;;;5052403;28;20205;-74
2022/11/09 04:56:28;;;;;;;3.83;2.80;;;12.70;98.60;;;;;;5053181;28;20278;-78
2022/11/09 04:58:54;;;;;;;6.80;3.03;;;12.70;97.70;;;;;;5052392;28;20559;-79
2022/11/09 05:01:20;;;;;;;3.87;2.50;;;12.70;97.50;;;;;;5053019;28;20201;-76
2022/11/09 05:03:46;;;;;;;2.80;2.50;;;12.70;95.40;;;;;;5050312;28;20551;-79
2022/11/09 05:08:57;;;;;;;10.20;2.80;;;12.70;95.90;;;;;;5052259;28;20212;-74
2022/11/09 05:11:23;;;;;;;3.17;2.97;;;12.60;97.50;;;;;;5053012;28;20410;-77
2022/11/09 05:13:50;;;;;;;4.03;2.33;;;12.60;99.60;;;;;;5051011;28;20803;-76
2022/11/09 05:16:16;;;;;;;2.60;2.40;;;12.60;99.90;;;;;;5068331;28;20530;-74
2022/11/09 05:18:42;;;;;;;3.77;2.50;;;12.60;99.90;;;;;;5052258;28;20494;-76
2022/11/09 05:21:08;;;;;;;3.37;3.17;;;12.50;99.90;;;;;;5052911;28;20409;-78
2022/11/09 05:26:18;;;;;;;4.13;3.10;;;12.50;99.90;;;;;;5052388;28;20457;-78
2022/11/09 05:28:44;;;;;;;3.43;2.83;;;12.50;99.90;;;;;;5033587;28;20929;-76
2022/11/09 05:31:10;;;;;;;2.53;2.33;;;12.50;99.90;;;;;;5052502;28;20182;-77
2022/11/09 05:33:35;;;;;;;3.17;2.87;;;12.50;99.90;;;;;;5052349;28;20186;-80
2022/11/09 05:36:02;;;;;;;7.30;3.10;;;12.50;99.90;;;;;;5050905;28;20214;-76
2022/11/09 05:38:27;;;;;;;3.43;2.70;;;12.50;99.90;;;;;;5051352;28;20224;-75
2022/11/09 05:40:54;;;;;;;3.67;2.67;;;12.60;99.90;;;;;;5050920;28;20912;-74
2022/11/09 05:43:20;;;;;;;6.80;2.93;;;12.60;99.90;;;;;;5051976;28;20242;-77
2022/11/09 05:45:46;;;;;;;3.03;2.83;;;12.60;99.90;;;;;;5051976;28;20399;-74
2022/11/09 05:48:14;;;;;;;2.90;2.63;;;12.70;99.90;;;;;;5051999;28;20411;-78
2022/11/09 05:50:41;;;;;;;3.20;2.70;;;12.70;99.90;;;;;;5051889;28;20416;-74
2022/11/09 05:53:07;;;;;;;7.20;2.40;;;12.80;99.90;;;;;;5052853;28;20760;-76
2022/11/09 05:55:33;;;;;;;4.80;2.53;;;12.80;99.90;;;;;;5051480;28;20531;-77
2022/11/09 05:57:59;;;;;;;2.87;2.37;;;12.80;99.90;;;;;;5052706;28;20440;-76
2022/11/09 06:00:25;;;;;;;4.00;2.53;;;12.80;99.90;;;;;;5051307;28;20261;-74
2022/11/09 06:02:51;;;;;;;5.17;3.27;;;12.80;99.90;;;;;;5051834;28;20635;-76
2022/11/09 06:05:19;;;;;;;2.90;2.70;;;12.80;99.90;;;;;;5051524;28;20457;-75
2022/11/09 06:07:45;;;;;;;3.80;3.17;;;12.80;99.90;;;;;;5052574;28;20179;-77
2022/11/09 06:10:12;;;;;;;2.50;2.30;;;12.80;99.90;;;;;;5050404;28;20889;-76
2022/11/09 06:12:37;;;;;;;7.30;2.70;;;12.80;99.90;;;;;;5052605;28;20417;-74
2022/11/09 06:15:04;;;;;;;4.63;3.40;;;12.80;99.90;;;;;;5051792;28;20451;-74
2022/11/09 06:17:30;;;;;;;6.53;3.00;;;12.70;99.90;;;;;;5052367;28;20205;-75
2022/11/09 06:19:56;;;;;;;3.67;3.20;;;12.80;99.90;;;;;;5066787;28;20407;-75
2022/11/09 06:22:21;;;;;;;5.17;3.07;;;12.80;99.90;;;;;;5052652;28;20527;-77
2022/11/09 06:24:47;;;;;;;10.07;2.97;;;12.70;99.90;;;;;;5051663;28;20564;-76
2022/11/09 06:27:15;;;;;;;2.70;2.50;;;12.70;99.90;;;;;;5051453;28;20610;-79
2022/11/09 06:29:41;;;;;;;5.67;3.10;;;12.70;99.90;;;;;;5066800;28;20607;-75
2022/11/09 06:32:07;;;;;;;2.20;2.10;;;12.70;99.90;;;;;;5052480;28;20412;-76
2022/11/09 06:34:32;;;;;;;9.73;2.90;;;12.70;99.90;;;;;;5051552;28;20701;-77
2022/11/09 06:36:58;;;;;;;2.50;2.30;;;12.80;99.90;;;;;;5052217;28;20559;-74
2022/11/09 06:39:24;;;;;;;3.53;2.80;;;12.70;99.90;;;;;;5050909;28;20602;-76
2022/11/09 06:41:52;;;;;;;3.23;2.93;;;12.70;99.90;;;;;;5052320;28;20182;-75
2022/11/09 06:44:18;;;;;;;2.40;2.00;;;12.80;99.90;;;;;;5053132;28;20182;-74
2022/11/09 06:46:43;;;;;;;4.67;2.97;;;12.80;99.90;;;;;;5055015;28;20424;-74
2022/11/09 06:49:10;;;;;;;5.67;3.40;;;12.80;99.90;;;;;;5054980;28;20178;-76
2022/11/09 06:51:35;;;;;;;5.30;3.30;;;12.80;99.90;;;;;;5055707;28;20174;-74
2022/11/09 06:54:01;;;;;;;5.97;3.07;;;12.80;99.90;;;;;;5054775;28;20768;-77
2022/11/09 06:56:27;;;;;;;2.63;2.43;;;12.90;99.90;;;;;;5052563;28;20260;-75
2022/11/09 06:58:52;;;;;;;6.50;2.80;;;12.90;99.90;;;;;;5054571;28;20623;-76
2022/11/09 07:01:22;;;;;;;6.37;3.17;;;12.90;99.90;;;;;;5055662;28;20201;-78
2022/11/09 07:03:48;;;;;;;3.00;2.77;;;13.00;99.90;;;;;;5054593;28;20225;-75
2022/11/09 07:06:14;;;;;;;2.57;2.37;;;13.00;99.90;;;;;;5055234;28;20459;-78
2022/11/09 07:08:40;;;;;;;10.13;3.20;;;13.10;99.90;;;;;;5054660;28;20175;-78
2022/11/09 07:11:11;;;;;;;4.03;2.67;;;13.10;99.90;;;;;;5053231;28;20486;-75
2022/11/09 07:13:38;;;;;;;4.80;2.57;;;13.10;99.90;;;;;;5054216;28;20918;-81
2022/11/09 07:16:05;;;;;;;11.83;2.57;;;13.10;99.90;;;;;;5054823;28;20460;-78
2022/11/09 07:18:31;;;;;;;5.20;2.70;;;13.00;99.90;;;;;;5055140;28;20372;-76
2022/11/09 07:20:56;;;;;;;2.83;2.40;;;13.00;99.90;;;;;;5053718;28;20404;-76
2022/11/09 07:23:22;;;;;;;2.90;2.27;;;12.90;99.90;;;;;;5054138;28;20416;-77
2022/11/09 07:25:48;;;;;;;2.47;2.27;;;12.90;99.90;;;;;;5054325;28;20199;-76
2022/11/09 07:28:14;;;;;;;4.73;2.20;;;12.90;99.90;;;;;;5054978;28;20175;-76
2022/11/09 07:30:40;;;;;;;3.53;2.77;;;12.90;99.90;;;;;;5053464;28;20410;-75
2022/11/09 07:33:14;;;;;;;3.93;2.60;;;12.90;99.90;;;;;;5054975;28;20368;-76
2022/11/09 07:35:40;;;;;;;10.10;2.70;;;12.90;99.90;;;;;;5053489;28;20705;-76
2022/11/09 07:38:06;;;;;;;9.33;3.00;;;13.00;99.90;;;;;;5054704;28;20361;-77
2022/11/09 07:40:32;;;;;;;3.40;2.57;;;13.00;99.90;;;;;;5051524;28;20495;-76
2022/11/09 07:43:02;;;;;;;4.73;2.60;;;13.10;99.90;;;;;;5053147;28;20495;-74
2022/11/09 07:45:29;;;;;;;3.30;2.87;;;13.00;99.90;;;;;;5053758;28;20193;-74
2022/11/09 07:48:04;;;;;;;5.90;2.83;;;13.00;99.90;;;;;;5054867;28;20398;-77
2022/11/09 07:50:31;;;;;;;7.03;2.90;;;13.00;99.90;;;;;;5054001;28;20411;-74
2022/11/09 07:52:58;;;;;;;3.37;2.57;;;13.10;99.90;;;;;;5053263;28;20449;-76
2022/11/09 07:55:25;;;;;;;4.70;3.40;;;13.00;99.90;;;;;;5053033;28;20396;-74
2022/11/09 07:57:55;;;;;;;3.37;3.13;;;13.00;99.90;;;;;;5054565;28;20384;-75
2022/11/09 08:00:21;;;;;;;3.13;2.70;;;13.10;99.90;;;;;;5053048;28;20392;-74
2022/11/09 08:02:50;;;;;;;3.17;2.87;;;13.10;99.90;;;;;;5054400;28;20405;-76
2022/11/09 08:05:16;;;;;;;4.00;2.87;;;13.20;99.90;;;;;;5053264;28;20258;-76
2022/11/09 08:07:41;;;;;;;3.07;2.80;;;13.20;99.90;;;;;;5054449;28;20477;-74
2022/11/09 08:10:07;;;;;;;3.33;2.73;;;13.20;99.90;;;;;;5051895;28;20269;-75
2022/11/09 08:12:34;;;;;;;2.77;2.57;;;13.30;99.90;;;;;;5052871;28;20175;-77
2022/11/09 08:14:59;;;;;;;3.70;2.43;;;13.20;99.90;;;;;;5053359;28;20380;-77
2022/11/09 08:17:25;;;;;;;3.93;2.63;;;13.30;99.90;;;;;;5053935;28;20466;-76
2022/11/09 08:19:50;;;;;;;4.10;2.40;;;13.30;99.90;;;;;;5052742;28;20586;-75
2022/11/09 08:22:16;;;;;;;3.03;2.80;;;13.30;99.90;;;;;;5054018;28;20553;-76
2022/11/09 08:24:42;;;;;;;5.40;3.80;;;13.30;99.90;;;;;;5053128;28;20166;-74
2022/11/09 08:27:07;;;;;;;6.73;4.20;;;13.30;99.90;;;;;;5052396;28;20194;-78
2022/11/09 08:29:33;;;;;;;4.67;2.80;;;13.20;99.90;;;;;;5068637;28;20541;-74
2022/11/09 08:31:59;;;;;;;4.17;2.97;;;13.20;99.90;;;;;;5053858;28;20233;-74
2022/11/09 08:34:24;;;;;;;2.63;2.43;;;13.20;99.90;;;;;;5053036;28;20175;-74
2022/11/09 08:36:50;;;;;;;3.90;2.90;;;13.20;99.90;;;;;;5053403;28;20199;-76
2022/11/09 08:39:16;;;;;;;4.03;2.70;;;13.20;99.90;;;;;;5050401;28;20198;-77
2022/11/09 08:41:41;;;;;;;5.30;3.40;;;13.20;99.90;;;;;;5053699;28;20221;-78
2022/11/09 08:44:07;;;;;;;4.47;2.70;;;13.20;99.90;;;;;;5052746;28;20380;-76
2022/11/09 08:46:33;;;;;;;4.27;3.20;;;13.20;99.90;;;;;;5053118;28;20191;-75
2022/11/09 08:48:58;;;;;;;5.60;2.93;;;13.20;99.90;;;;;;5052368;28;20182;-77
2022/11/09 08:51:24;;;;;;;3.53;2.60;;;13.20;99.90;;;;;;5053383;28;20171;-74
2022/11/09 08:53:50;;;;;;;5.17;2.90;;;13.20;99.90;;;;;;5052753;28;20250;-74
2022/11/09 08:56:17;;;;;;;3.30;3.00;;;13.20;99.90;;;;;;5052346;28;20198;-74
2022/11/09 08:58:44;;;;;;;3.80;3.50;;;13.30;99.90;;;;;;5052046;28;20376;-78
2022/11/09 09:01:10;;;;;;;8.03;3.10;;;13.40;99.90;;;;;;5052543;28;20441;-76
2022/11/09 09:03:36;;;;;;;3.67;3.37;;;13.50;99.90;;;;;;5052635;28;20417;-80
2022/11/09 09:06:08;;;;;;;3.13;2.83;;;13.60;99.90;;;;;;5051705;28;20913;-76
2022/11/09 09:08:34;;;;;;;5.33;2.77;;;13.70;99.90;;;;;;5052500;28;20404;-78
2022/11/09 09:11:03;;;;;;;3.50;3.20;;;13.80;99.90;;;;;;5052381;28;20435;-75
2022/11/09 09:13:30;;;;;;;5.43;3.17;;;13.90;99.90;;;;;;5052861;28;20372;-77
2022/11/09 09:15:55;;;;;;;3.30;2.90;;;13.90;99.90;;;;;;5051022;28;20431;-76
2022/11/09 09:18:21;;;;;;;5.03;2.90;;;14.00;99.90;;;;;;5051948;28;20775;-76
2022/11/09 09:20:47;;;;;;;5.37;4.23;;;14.10;99.90;;;;;;5052932;28;20528;-77
2022/11/09 09:23:14;;;;;;;6.00;2.53;;;14.10;99.90;;;;;;5051873;28;20181;-79
2022/11/09 09:25:40;;;;;;;4.00;2.80;;;14.10;99.90;;;;;;5051566;28;20403;-74
2022/11/09 09:28:06;;;;;;;3.20;2.70;;;14.10;99.90;;;;;;5052998;28;20397;-74
2022/11/09 09:30:31;;;;;;;2.90;2.60;;;14.20;99.90;;;;;;5052333;28;20537;-75
2022/11/09 09:33:00;;;;;;;4.10;2.90;;;14.20;99.90;;;;;;5052106;28;20828;-74
2022/11/09 09:35:27;;;;;;;5.00;2.97;;;14.20;99.90;;;;;;5051847;28;20314;-74
2022/11/09 09:37:53;;;;;;;8.23;2.97;;;14.20;99.90;;;;;;5052831;28;20427;-79
2022/11/09 09:40:28;;;;;;;5.53;2.60;;;14.20;99.90;;;;;;5052908;28;20405;-75
2022/11/09 09:42:55;;;;;;;4.60;3.07;;;14.20;99.90;;;;;;5050811;28;20424;-74
2022/11/09 09:45:25;;;;;;;9.47;3.60;;;14.20;99.90;;;;;;5051436;28;20377;-74
2022/11/09 09:48:10;;;;;;;2.83;2.60;;;14.20;99.90;;;;;;5052923;28;20415;-77
2022/11/09 09:51:01;;;;;;;5.10;2.80;;;14.20;99.90;;;;;;5051328;28;21014;-75
2022/11/09 09:53:40;;;;;;;3.67;2.70;;;14.40;99.90;;;;;;5032488;28;20824;-76
2022/11/09 09:56:22;;;;;;;6.53;3.93;;;14.40;99.90;;;;;;5032507;28;20950;-77
2022/11/09 09:59:18;;;;;;;3.13;2.23;;;14.30;99.90;;;;;;5065078;28;20836;-74
2022/11/09 10:01:47;;;;;;;4.27;3.23;;;14.30;99.90;;;;;;5051216;28;20483;-77
2022/11/09 10:04:20;;;;;;;2.90;2.57;;;14.30;99.90;;;;;;5051741;28;20413;-73
2022/11/09 10:07:16;;;;;;;2.97;2.77;;;14.40;99.90;;;;;;5052453;28;20757;-75
2022/11/09 10:09:54;;;;;;;6.20;2.50;;;14.50;99.90;;;;;;5049994;28;20445;-76
2022/11/09 10:12:38;;;;;;;3.13;2.80;;;14.70;99.90;;;;;;5051973;28;20751;-76
2022/11/09 10:15:26;;;;;;;2.50;2.40;;;14.90;99.90;;;;;;5052122;28;20397;-73
2022/11/09 10:18:13;;;;;;;6.47;2.80;;;15.00;93.90;;;;;;5052639;28;20951;-78
2022/11/09 10:21:10;;;;;;;5.77;2.10;;;15.00;93.90;;;;;;5056741;28;20378;-73
2022/11/09 10:23:57;;;;;;;4.43;2.53;;;15.30;94.00;;;;;;5012544;28;20462;-77
2022/11/09 10:26:35;;;;;;;2.70;2.10;;;15.40;94.00;;;;;;5036537;28;20468;-76
2022/11/09 10:29:32;;;;;;;3.47;2.40;;;15.50;94.00;;;;;;5036777;28;20414;-73
2022/11/09 10:32:16;;;;;;;5.57;2.77;;;15.50;84.00;;;;;;5036275;28;20429;-74
2022/11/09 10:35:01;;;;;;;4.83;2.37;;;15.30;73.10;;;;;;5034582;28;20422;-76
2022/11/09 10:37:39;;;;;;;2.90;2.13;;;15.30;72.70;;;;;;5034671;28;20457;-75
2022/11/09 10:40:14;;;;;;;7.63;2.10;;;15.20;68.40;;;;;;5036096;28;20766;-75
2022/11/09 10:43:09;;;;;;;13.20;3.10;;;15.00;66.80;;;;;;5039241;28;20984;-76
2022/11/09 10:45:40;;;;;;;2.93;2.30;;;14.90;66.90;;;;;;5051702;28;20456;-75
2022/11/09 10:48:08;;;;;;;4.97;2.60;;;14.80;71.50;;;;;;5056008;28;20410;-76
2022/11/09 10:50:45;;;;;;;3.30;1.90;;;14.90;68.00;;;;;;5056407;28;20744;-74
2022/11/09 10:53:15;;;;;;;2.63;2.00;;;14.90;71.90;;;;;;5070412;28;20429;-76
2022/11/09 10:56:05;;;;;;;5.17;2.33;;;15.10;65.20;;;;;;5054952;28;20441;-80
2022/11/09 10:58:36;;;;;;;3.23;2.57;;;14.90;50.40;;;;;;5056011;28;20398;-77
2022/11/09 11:01:16;;;;;;;4.20;2.40;;;15.00;45.30;;;;;;5054634;28;20532;-77
2022/11/09 11:03:43;;;;;;;4.40;2.10;;;14.90;48.70;;;;;;5053937;28;20427;-79
2022/11/09 11:06:18;;;;;;;6.33;2.43;;;14.90;48.10;;;;;;5054499;28;20786;-78
2022/11/09 11:08:49;;;;;;;3.00;1.57;;;14.90;44.10;;;;;;5055772;28;20897;-78
2022/11/09 11:11:27;;;;;;;6.83;2.40;;;14.90;43.70;;;;;;5051517;28;20886;-79
2022/11/09 11:14:09;;;;;;;2.97;2.20;;;14.90;31.30;;;;;;5052953;28;20440;-76
2022/11/09 11:16:36;;;;;;;3.83;2.53;;;14.90;37.60;;;;;;5055385;28;20449;-75
2022/11/09 11:19:05;;;;;;;11.33;2.77;;;14.90;34.10;;;;;;5055494;28;20405;-77
2022/11/09 11:21:31;;;;;;;2.40;2.20;;;14.90;39.50;;;;;;5055437;28;20406;-77
2022/11/09 11:24:15;;;;;;;3.60;2.30;;;15.10;31.30;;;;;;5053699;28;20406;-79
2022/11/09 11:26:58;;;;;;;5.77;2.33;;;15.20;33.70;;;;;;5055395;28;20396;-79
2022/11/09 11:29:40;;;;;;;6.30;2.60;;;15.30;36.50;;;;;;5054230;28;20444;-75
2022/11/09 11:32:20;;;;;;;2.23;2.03;;;15.30;28.50;;;;;;5054412;28;20500;-78
2022/11/09 11:34:47;;;;;;;9.23;2.10;;;15.30;24.90;;;;;;5054436;28;20397;-75
2022/11/09 11:37:19;;;;;;;1.67;1.57;;;15.30;21.90;;;;;;5055197;28;20540;-79
2022/11/09 11:40:00;;;;;;;6.13;3.00;;;15.10;14.10;;;;;;5053602;28;20586;-78
2022/11/09 11:42:43;;;;;;;10.70;3.07;;;15.00;21.50;;;;;;5054152;28;20535;-76
2022/11/09 11:45:19;;;;;;;2.83;1.90;;;14.90;19.60;;;;;;5054264;28;20390;-75
2022/11/09 11:47:50;;;;;;;3.73;2.47;;;14.80;17.40;;;;;;5053736;28;20490;-76
2022/11/09 11:50:45;;;;;;;4.23;2.00;;;14.80;25.30;;;;;;5053234;28;20816;-80
2022/11/09 11:53:48;;;;;;;3.10;2.30;;;14.90;23.90;;;;;;5052474;28;20429;-73
2022/11/09 11:56:49;;;;;;;2.77;1.80;;;15.00;15.10;;;;;;5050042;28;20446;-76
2022/11/09 12:00:07;;;;;;;5.27;1.90;;;15.00;21.90;;;;;;5034865;28;20401;-79
2022/11/09 12:02:51;;;;;;;3.33;1.70;;;15.00;12.10;;;;;;5036843;28;20429;-77
2022/11/09 12:05:59;;;;;;;3.70;2.27;;;15.10;15.10;;;;;;5050916;28;20769;-75
2022/11/09 12:08:34;;;;;;;4.30;1.93;;;15.20;10.90;;;;;;5053085;28;20827;-77
2022/11/09 12:11:16;;;;;;;3.87;1.60;;;15.20;7.80;;;;;;5053177;28;20401;-81
2022/11/09 12:14:03;;;;;;;5.37;2.40;;;15.10;1.70;;;;;;5052037;28;20482;-79
2022/11/09 12:16:43;;;;;;;5.73;2.03;;;15.10;2.00;;;;;;5052343;28;20504;-77
2022/11/09 12:19:43;;;;;;;7.20;2.07;;;15.00;5.30;;;;;;5052342;28;20404;-81
2022/11/09 12:22:28;;;;;;;5.33;2.73;;;15.00;2.30;;;;;;5053070;28;20465;-82
2022/11/09 12:25:10;;;;;;;2.20;1.30;;;15.00;5.00;;;;;;5053377;28;20491;-85
2022/11/09 12:27:52;;;;;;;3.60;1.70;;;15.00;1.00;;;;;;5054187;28;20457;-76
2022/11/09 12:30:21;;;;;;;3.73;2.47;;;15.00;1.40;;;;;;5052109;28;20437;-83
2022/11/09 12:33:06;;;;;;;7.70;2.50;;;15.00;6.30;;;;;;5053975;28;20405;-75
2022/11/09 12:35:38;;;;;;;2.90;2.20;;;15.00;4.70;;;;;;5067830;28;20428;-83
2022/11/09 12:38:15;;;;;;;7.43;2.67;;;14.90;1.50;;;;;;5053906;28;20750;-75
2022/11/09 12:41:04;;;;;;;2.60;1.80;;;15.00;6.10;;;;;;5051992;28;20388;-74
2022/11/09 12:43:48;;;;;;;4.30;1.93;;;15.10;11.40;;;;;;5069157;28;20398;-83
2022/11/09 12:46:16;;;;;;;1.70;1.60;;;15.20;5.60;;;;;;5053942;28;20464;-81
2022/11/09 12:48:44;;;;;;;4.90;2.33;;;15.30;4.80;;;;;;5053067;28;20394;-77
2022/11/09 12:51:09;;;;;;;2.77;1.90;;;15.40;3.90;;;;;;5053795;28;20420;-75
2022/11/09 12:53:37;;;;;;;3.93;2.33;;;15.40;3.40;;;;;;5067636;28;20409;-81
2022/11/09 12:56:19;;;;;;;6.70;2.20;;;15.40;4.50;;;;;;5053984;28;20199;-80
2022/11/09 12:58:45;;;;;;;6.00;2.67;;;15.40;6.30;;;;;;5051988;28;20432;-79
2022/11/09 13:01:32;;;;;;;2.30;1.87;;;15.40;3.50;;;;;;5053734;28;20401;-75
2022/11/09 13:04:01;;;;;;;5.33;1.70;;;15.30;1.50;;;;;;5052555;28;20425;-79
2022/11/09 13:06:31;;;;;;;2.93;2.20;;;15.10;1.00;;;;;;5053570;28;20503;-76
2022/11/09 13:09:22;;;;;;;4.43;2.10;;;15.10;1.00;;;;;;5052577;28;20384;-81